createdAt,value
2022-10-02T00:00:03.022Z,54.35
2022-10-02T00:03:38.021Z,54.38
2022-10-02T00:06:48.080Z,54.12
2022-10-02T00:09:57.710Z,54.18
2022-10-02T00:13:05.983Z,54.12
2022-10-02T00:16:22.402Z,54.04
2022-10-02T00:19:25.820Z,54.07
2022-10-02T00:22:46.596Z,53.75
2022-10-02T00:26:01.657Z,53.86
2022-10-02T00:29:25.525Z,53.95
2022-10-02T00:32:36.077Z,53.88
2022-10-02T00:35:56.839Z,53.63
2022-10-02T00:39:07.231Z,53.55
2022-10-02T00:42:50.429Z,53.44
2022-10-02T00:46:11.604Z,53.60
2022-10-02T00:49:38.211Z,53.61
2022-10-02T00:53:00.094Z,53.84
2022-10-02T00:56:20.980Z,53.57
2022-10-02T00:59:44.779Z,53.83
2022-10-02T01:03:04.417Z,53.34
2022-10-02T01:06:09.328Z,53.48
2022-10-02T01:09:13.172Z,53.44
2022-10-02T01:12:16.714Z,53.33
2022-10-02T01:15:24.147Z,53.36
2022-10-02T01:18:28.096Z,53.34
2022-10-02T01:21:37.259Z,53.26
2022-10-02T01:24:50.261Z,53.34
2022-10-02T01:27:54.771Z,53.28
2022-10-02T01:31:03.786Z,53.21
2022-10-02T01:34:07.305Z,53.30
2022-10-02T01:37:11.053Z,53.30
2022-10-02T01:40:27.296Z,53.21
2022-10-02T01:43:35.764Z,53.18
2022-10-02T01:46:47.949Z,53.05
2022-10-02T01:50:10.397Z,52.82
2022-10-02T01:53:21.772Z,53.00
2022-10-02T01:56:39.235Z,52.99
2022-10-02T01:59:53.733Z,52.99
2022-10-02T02:03:09.052Z,52.99
2022-10-02T02:06:24.122Z,52.42
2022-10-02T02:09:39.021Z,53.11
2022-10-02T02:12:48.625Z,52.99
2022-10-02T02:16:01.440Z,53.01
2022-10-02T02:19:10.843Z,53.02
2022-10-02T02:22:20.972Z,52.91
2022-10-02T02:25:29.293Z,52.90
2022-10-02T02:28:36.427Z,52.98
2022-10-02T02:31:45.560Z,53.03
2022-10-02T02:35:06.830Z,52.64
2022-10-02T02:38:15.910Z,53.01
2022-10-02T02:41:25.248Z,52.81
2022-10-02T02:44:37.532Z,52.85
2022-10-02T02:47:46.911Z,52.90
2022-10-02T02:50:55.679Z,52.83
2022-10-02T02:54:05.785Z,52.69
2022-10-02T02:57:12.768Z,52.65
2022-10-02T03:00:19.781Z,53.14
2022-10-02T03:03:23.320Z,52.74
2022-10-02T03:06:33.261Z,52.71
2022-10-02T03:09:37.883Z,52.73
2022-10-02T03:12:58.086Z,52.65
2022-10-02T03:16:19.873Z,52.50
2022-10-02T03:19:41.379Z,52.62
2022-10-02T03:22:55.795Z,52.49
2022-10-02T03:26:04.562Z,52.69
2022-10-02T03:29:14.211Z,52.58
2022-10-02T03:32:21.237Z,52.59
2022-10-02T03:35:26.293Z,52.85
2022-10-02T03:38:30.210Z,52.67
2022-10-02T03:41:33.751Z,52.81
2022-10-02T03:44:37.015Z,52.53
2022-10-02T03:47:41.626Z,52.47
2022-10-02T03:50:45.486Z,52.58
2022-10-02T03:53:48.878Z,52.82
2022-10-02T03:56:57.303Z,52.66
2022-10-02T04:00:05.733Z,52.49
2022-10-02T04:03:16.949Z,52.51
2022-10-02T04:06:24.254Z,52.47
2022-10-02T04:09:37.669Z,52.47
2022-10-02T04:12:46.449Z,52.59
2022-10-02T04:16:00.013Z,52.57
2022-10-02T04:19:13.741Z,52.11
2022-10-02T04:22:34.876Z,52.33
2022-10-02T04:25:44.020Z,52.24
2022-10-02T04:28:54.109Z,52.32
2022-10-02T04:32:09.086Z,52.24
2022-10-02T04:35:22.396Z,52.44
2022-10-02T04:38:54.455Z,52.26
2022-10-02T04:42:19.145Z,52.37
2022-10-02T04:49:38.891Z,52.19
2022-10-02T04:53:03.739Z,52.21
2022-10-02T04:56:33.243Z,52.17
2022-10-02T05:00:05.565Z,52.26
2022-10-02T05:03:32.367Z,52.32
2022-10-02T05:06:56.731Z,52.18
2022-10-02T05:10:26.385Z,52.38
2022-10-02T05:13:47.828Z,52.30
2022-10-02T05:17:07.235Z,52.21
2022-10-02T05:20:36.657Z,52.32
2022-10-02T05:23:58.168Z,51.87
2022-10-02T05:27:36.799Z,52.11
2022-10-02T05:30:49.699Z,52.00
2022-10-02T05:34:16.535Z,52.13
2022-10-02T05:37:38.914Z,52.30
2022-10-02T05:40:49.519Z,52.15
2022-10-02T05:44:03.368Z,52.13
2022-10-02T05:47:14.562Z,52.25
2022-10-02T05:50:20.310Z,52.10
2022-10-02T05:53:34.468Z,52.13
2022-10-02T05:56:44.164Z,52.34
2022-10-02T06:00:01.896Z,52.14
2022-10-02T06:03:15.003Z,52.19
2022-10-02T06:06:23.064Z,52.14
2022-10-02T06:09:30.967Z,52.16
2022-10-02T06:12:40.879Z,52.09
2022-10-02T06:15:52.448Z,52.25
2022-10-02T06:22:27.564Z,52.26
2022-10-02T06:25:35.199Z,52.19
2022-10-02T06:28:44.327Z,52.02
2022-10-02T06:31:57.256Z,52.00
2022-10-02T06:35:00.778Z,51.92
2022-10-02T06:38:19.261Z,51.98
2022-10-02T06:41:34.132Z,51.98
2022-10-02T06:44:49.680Z,51.99
2022-10-02T06:48:08.632Z,51.99
2022-10-02T06:51:22.245Z,52.08
2022-10-02T06:54:48.506Z,52.19
2022-10-02T06:58:11.333Z,52.36
2022-10-02T07:01:27.364Z,52.64
2022-10-02T07:04:49.189Z,53.01
2022-10-02T07:08:03.835Z,53.44
2022-10-02T07:11:16.777Z,53.37
2022-10-02T07:14:39.991Z,53.39
2022-10-02T07:17:57.598Z,53.20
2022-10-02T07:21:11.758Z,53.67
2022-10-02T07:24:41.166Z,53.67
2022-10-02T07:27:51.811Z,53.68
2022-10-02T07:31:03.806Z,53.31
2022-10-02T07:34:28.240Z,53.32
2022-10-02T07:37:46.669Z,52.88
2022-10-02T07:41:04.228Z,52.76
2022-10-02T07:44:27.760Z,52.93
2022-10-02T07:47:51.345Z,52.75
2022-10-02T07:51:32.227Z,53.37
2022-10-02T07:54:54.967Z,53.23
2022-10-02T07:58:05.369Z,53.44
2022-10-02T08:01:15.179Z,53.56
2022-10-02T08:04:25.728Z,53.25
2022-10-02T08:07:30.645Z,53.13
2022-10-02T08:10:40.166Z,53.55
2022-10-02T08:13:48.811Z,52.97
2022-10-02T08:16:55.219Z,52.99
2022-10-02T08:20:09.287Z,52.69
2022-10-02T08:23:21.931Z,53.75
2022-10-02T08:26:35.860Z,53.44
2022-10-02T08:29:46.051Z,53.66
2022-10-02T08:32:49.264Z,53.58
2022-10-02T08:36:24.313Z,53.34
2022-10-02T08:40:04.286Z,53.90
2022-10-02T08:43:55.567Z,53.88
2022-10-02T08:47:28.947Z,54.15
2022-10-02T08:51:34.854Z,53.98
2022-10-02T08:55:20.632Z,54.55
2022-10-02T08:59:18.956Z,54.45
2022-10-02T09:03:24.788Z,55.21
2022-10-02T09:07:11.665Z,54.29
2022-10-02T09:10:55.594Z,53.95
2022-10-02T09:14:40.328Z,53.39
2022-10-02T09:18:12.779Z,52.29
2022-10-02T09:21:18.643Z,52.81
2022-10-02T09:25:08.121Z,52.33
2022-10-02T09:28:48.645Z,52.37
2022-10-02T09:32:46.582Z,52.38
2022-10-02T09:36:36.533Z,51.87
2022-10-02T09:40:32.952Z,51.92
2022-10-02T09:44:14.717Z,51.93
2022-10-02T09:48:13.928Z,52.05
2022-10-02T09:52:14.119Z,51.87
2022-10-02T09:56:15.350Z,51.92
2022-10-02T09:59:51.343Z,52.79
2022-10-02T10:03:30.712Z,53.36
2022-10-02T10:07:19.037Z,52.89
2022-10-02T10:11:11.164Z,53.13
2022-10-02T10:15:17.152Z,53.18
2022-10-02T10:19:04.400Z,53.79
2022-10-02T10:22:40.134Z,53.63
2022-10-02T10:26:39.645Z,53.35
2022-10-02T10:30:33.223Z,53.38
2022-10-02T10:34:20.170Z,52.98
2022-10-02T10:38:05.628Z,52.89
2022-10-02T10:41:51.616Z,49.18
2022-10-02T10:45:20.661Z,48.69
2022-10-02T10:48:39.420Z,50.10
2022-10-02T10:51:49.678Z,49.71
2022-10-02T10:55:12.638Z,50.67
2022-10-02T10:58:22.265Z,51.04
2022-10-02T11:01:38.495Z,51.59
2022-10-02T11:05:15.490Z,50.86
2022-10-02T11:09:01.186Z,51.21
2022-10-02T11:12:42.341Z,52.04
2022-10-02T11:16:33.691Z,51.67
2022-10-02T11:19:54.163Z,51.58
2022-10-02T11:23:36.520Z,51.95
2022-10-02T11:27:11.945Z,51.80
2022-10-02T11:30:24.102Z,51.76
2022-10-02T11:33:59.931Z,51.02
2022-10-02T11:37:25.773Z,50.87
2022-10-02T11:41:10.205Z,50.46
2022-10-02T11:44:27.987Z,50.01
2022-10-02T11:48:20.412Z,49.70
2022-10-02T11:51:42.423Z,49.79
2022-10-02T11:55:03.541Z,49.67
2022-10-02T11:58:20.110Z,49.90
2022-10-02T12:01:34.484Z,49.43
2022-10-02T12:04:54.415Z,47.84
2022-10-02T12:08:08.476Z,46.37
2022-10-02T12:11:21.377Z,45.63
2022-10-02T12:14:35.523Z,45.21
2022-10-02T12:18:03.037Z,44.60
2022-10-02T12:21:45.250Z,44.30
2022-10-02T12:25:20.239Z,43.96
2022-10-02T12:28:36.131Z,44.20
2022-10-02T12:31:51.365Z,43.70
2022-10-02T12:35:07.265Z,43.87
2022-10-02T12:38:28.507Z,44.11
2022-10-02T12:42:01.002Z,44.74
2022-10-02T12:45:46.605Z,45.67
2022-10-02T12:49:13.101Z,45.97
2022-10-02T12:52:48.956Z,46.31
2022-10-02T12:56:45.734Z,46.68
2022-10-02T12:59:59.069Z,47.47
2022-10-02T13:03:46.927Z,47.88
2022-10-02T13:07:58.944Z,48.05
2022-10-02T13:11:14.572Z,47.69
2022-10-02T13:15:11.729Z,48.12
2022-10-02T13:18:43.586Z,47.79
2022-10-02T13:21:59.281Z,48.01
2022-10-02T13:25:31.982Z,47.38
2022-10-02T13:29:08.007Z,46.81
2022-10-02T13:32:32.873Z,46.79
2022-10-02T13:36:08.691Z,46.00
2022-10-02T13:40:00.384Z,46.34
2022-10-02T13:43:34.542Z,46.55
2022-10-02T13:47:18.742Z,46.49
2022-10-02T13:50:38.006Z,46.70
2022-10-02T13:54:12.279Z,45.91
2022-10-02T13:57:37.050Z,45.99
2022-10-02T14:00:58.456Z,45.43
2022-10-02T14:04:27.513Z,45.32
2022-10-02T14:07:49.036Z,44.79
2022-10-02T14:11:09.201Z,44.45
2022-10-02T14:14:29.231Z,44.26
2022-10-02T14:17:43.737Z,44.31
2022-10-02T14:20:56.653Z,44.32
2022-10-02T14:24:47.650Z,44.31
2022-10-02T14:28:27.843Z,44.32
2022-10-02T14:32:19.065Z,44.65
2022-10-02T14:35:35.618Z,44.54
2022-10-02T14:38:55.471Z,44.61
2022-10-02T14:42:32.337Z,45.42
2022-10-02T14:46:03.248Z,45.03
2022-10-02T14:49:35.838Z,45.43
2022-10-02T14:52:58.433Z,45.17
2022-10-02T14:56:48.490Z,45.75
2022-10-02T15:00:08.931Z,45.77
2022-10-02T15:03:35.338Z,45.34
2022-10-02T15:07:04.727Z,44.84
2022-10-02T15:10:17.632Z,45.25
2022-10-02T15:13:35.564Z,44.75
2022-10-02T15:17:04.999Z,44.12
2022-10-02T15:20:31.558Z,44.28
2022-10-02T15:23:45.228Z,44.34
2022-10-02T15:26:57.510Z,44.28
2022-10-02T15:30:15.204Z,43.15
2022-10-02T15:33:29.038Z,43.79
2022-10-02T15:37:00.386Z,43.73
2022-10-02T15:40:24.977Z,43.82
2022-10-02T15:43:46.010Z,43.75
2022-10-02T15:47:03.767Z,44.31
2022-10-02T15:50:26.575Z,44.37
2022-10-02T15:53:54.896Z,44.31
2022-10-02T15:57:12.093Z,45.40
2022-10-02T16:00:17.825Z,44.90
2022-10-02T16:03:28.857Z,45.33
2022-10-02T16:06:53.762Z,45.30
2022-10-02T16:10:14.848Z,45.83
2022-10-02T16:13:40.506Z,45.29
2022-10-02T16:17:10.796Z,45.38
2022-10-02T16:20:37.728Z,45.27
2022-10-02T16:24:31.396Z,45.56
2022-10-02T16:27:54.465Z,45.37
2022-10-02T16:31:20.096Z,45.69
2022-10-02T16:34:43.035Z,45.18
2022-10-02T16:37:56.917Z,45.56
2022-10-02T16:41:11.344Z,45.74
2022-10-02T16:45:03.835Z,45.62
2022-10-02T16:48:12.096Z,45.48
2022-10-02T16:51:29.922Z,44.97
2022-10-02T16:54:46.178Z,45.21
2022-10-02T16:58:00.347Z,45.70
2022-10-02T17:01:23.765Z,46.53
2022-10-02T17:04:50.093Z,46.64
2022-10-02T17:08:02.670Z,47.21
2022-10-02T17:11:21.574Z,47.48
2022-10-02T17:14:38.094Z,48.34
2022-10-02T17:18:09.735Z,47.91
2022-10-02T17:21:17.454Z,47.88
2022-10-02T17:24:34.935Z,49.05
2022-10-02T17:27:49.111Z,49.01
2022-10-02T17:31:17.224Z,49.55
2022-10-02T17:34:23.895Z,49.32
2022-10-02T17:37:57.995Z,48.57
2022-10-02T17:41:16.036Z,48.90
2022-10-02T17:44:33.352Z,49.26
2022-10-02T17:47:57.872Z,49.83
2022-10-02T17:51:50.796Z,50.92
2022-10-02T17:55:18.619Z,51.22
2022-10-02T17:58:31.983Z,51.89
2022-10-02T18:01:46.046Z,51.25
2022-10-02T18:05:15.932Z,51.84
2022-10-02T18:08:35.384Z,51.69
2022-10-02T18:11:56.683Z,51.28
2022-10-02T18:15:23.866Z,51.07
2022-10-02T18:18:38.899Z,51.52
2022-10-02T18:21:56.632Z,51.64
2022-10-02T18:25:27.489Z,51.63
2022-10-02T18:28:48.442Z,51.47
2022-10-02T18:32:28.167Z,50.84
2022-10-02T18:35:53.102Z,51.41
2022-10-02T18:39:01.802Z,51.56
2022-10-02T18:42:39.919Z,50.71
2022-10-02T18:45:55.952Z,51.64
2022-10-02T18:49:23.998Z,52.43
2022-10-02T18:52:49.855Z,52.73
2022-10-02T18:56:07.280Z,52.81
2022-10-02T18:59:23.223Z,53.19
2022-10-02T19:02:42.630Z,53.31
2022-10-02T19:05:52.098Z,53.50
2022-10-02T19:09:12.232Z,53.44
2022-10-02T19:12:18.611Z,53.92
2022-10-02T19:15:27.369Z,52.90
2022-10-02T19:18:33.078Z,53.18
2022-10-02T19:21:38.708Z,52.40
2022-10-02T19:24:47.727Z,53.18
2022-10-02T19:27:55.072Z,52.73
2022-10-02T19:31:02.503Z,52.57
2022-10-02T19:34:13.361Z,52.37
2022-10-02T19:37:19.317Z,52.66
2022-10-02T19:40:28.174Z,53.93
2022-10-02T19:43:34.392Z,53.01
2022-10-02T19:46:43.271Z,52.61
2022-10-02T19:49:51.293Z,52.63
2022-10-02T19:52:59.153Z,53.13
2022-10-02T19:56:06.010Z,52.47
2022-10-02T19:59:18.253Z,52.36
2022-10-02T20:02:26.740Z,52.73
2022-10-02T20:05:35.043Z,52.88
2022-10-02T20:08:47.073Z,52.63
2022-10-02T20:11:56.160Z,52.42
2022-10-02T20:15:04.933Z,52.67
2022-10-02T20:18:08.449Z,52.16
2022-10-02T20:21:19.559Z,52.34
2022-10-02T20:24:29.536Z,52.00
2022-10-02T20:27:44.230Z,52.00
2022-10-02T20:30:53.414Z,52.03
2022-10-02T20:34:00.235Z,52.23
2022-10-02T20:37:08.646Z,52.40
2022-10-02T20:40:17.439Z,52.77
2022-10-02T20:43:28.965Z,52.69
2022-10-02T20:47:14.726Z,52.59
2022-10-02T20:50:45.283Z,51.94
2022-10-02T20:54:35.725Z,52.21
2022-10-02T20:58:23.120Z,52.58
2022-10-02T21:01:39.937Z,52.91
2022-10-02T21:05:18.524Z,53.12
2022-10-02T21:08:57.533Z,53.45
2022-10-02T21:12:25.228Z,53.25
2022-10-02T21:16:10.919Z,53.68
2022-10-02T21:19:52.082Z,53.82
2022-10-02T21:23:32.878Z,54.12
2022-10-02T21:27:00.044Z,54.10
2022-10-02T21:30:12.922Z,53.93
2022-10-02T21:33:22.480Z,53.68
2022-10-02T21:36:33.793Z,53.90
2022-10-02T21:40:08.816Z,54.55
2022-10-02T21:44:18.043Z,54.35
2022-10-02T21:48:07.193Z,55.14
2022-10-02T21:51:55.768Z,55.26
2022-10-02T21:56:01.360Z,55.50
2022-10-02T21:59:28.562Z,55.86
2022-10-02T22:03:12.274Z,55.86
2022-10-02T22:06:36.415Z,56.16
2022-10-02T22:09:51.123Z,56.02
2022-10-02T22:13:15.289Z,56.09
2022-10-02T22:16:31.595Z,56.28
2022-10-02T22:19:57.888Z,56.06
2022-10-02T22:23:20.391Z,56.33
2022-10-02T22:26:39.487Z,56.19
2022-10-02T22:29:47.849Z,55.81
2022-10-02T22:33:16.059Z,56.28
2022-10-02T22:36:39.013Z,56.11
2022-10-02T22:39:53.110Z,56.16
2022-10-02T22:43:01.887Z,56.29
2022-10-02T22:46:10.890Z,56.19
2022-10-02T22:49:25.221Z,56.44
2022-10-02T22:52:37.815Z,56.30
2022-10-02T22:55:50.832Z,56.43
2022-10-02T22:59:07.612Z,56.38
2022-10-02T23:02:17.298Z,55.86
2022-10-02T23:05:29.175Z,55.82
2022-10-02T23:08:38.430Z,56.30
2022-10-02T23:11:47.977Z,55.57
2022-10-02T23:15:03.265Z,56.17
2022-10-02T23:18:19.176Z,56.15
2022-10-02T23:21:46.122Z,56.44
2022-10-02T23:25:00.308Z,55.84
2022-10-02T23:28:12.090Z,56.10
2022-10-02T23:31:22.969Z,55.66
2022-10-02T23:34:41.317Z,55.60
2022-10-02T23:37:54.203Z,55.96
2022-10-02T23:41:25.554Z,55.93
2022-10-02T23:44:38.883Z,55.67
2022-10-02T23:47:58.745Z,56.10
2022-10-02T23:51:16.560Z,55.87
2022-10-02T23:54:50.279Z,55.92
2022-10-02T23:58:36.854Z,55.79
